sensor_id;sensor_type;location;lat;lon;timestamp;pressure;altitude;pressure_sealevel;temperature;humidity
77725;BME280;66892;53.236;6.550;2024-03-06T00:01:55;102033.78;;;3.71;100.00
77725;BME280;66892;53.236;6.550;2024-03-06T00:04:21;102039.91;;;3.72;100.00
77725;BME280;66892;53.236;6.550;2024-03-06T00:06:47;102047.78;;;3.72;100.00
77725;BME280;66892;53.236;6.550;2024-03-06T00:09:13;102048.03;;;3.78;100.00
77725;BME280;66892;53.236;6.550;2024-03-06T00:11:41;102046.09;;;3.74;100.00
77725;BME280;66892;53.236;6.550;2024-03-06T00:14:07;102050.56;;;3.77;100.00
77725;BME280;66892;53.236;6.550;2024-03-06T00:16:33;102053.25;;;3.78;100.00
77725;BME280;66892;53.236;6.550;2024-03-06T00:19:00;102058.38;;;3.75;100.00
77725;BME280;66892;53.236;6.550;2024-03-06T00:21:26;102063.00;;;3.82;100.00
77725;BME280;66892;53.236;6.550;2024-03-06T00:23:52;102062.81;;;3.78;100.00
77725;BME280;66892;53.236;6.550;2024-03-06T00:26:18;102054.06;;;3.77;100.00
77725;BME280;66892;53.236;6.550;2024-03-06T00:28:45;102062.13;;;3.82;100.00
77725;BME280;66892;53.236;6.550;2024-03-06T00:31:11;102066.34;;;3.78;100.00
77725;BME280;66892;53.236;6.550;2024-03-06T00:33:37;102066.47;;;3.81;100.00
77725;BME280;66892;53.236;6.550;2024-03-06T00:36:04;102067.38;;;3.82;100.00
77725;BME280;66892;53.236;6.550;2024-03-06T00:38:30;102074.44;;;3.84;100.00
77725;BME280;66892;53.236;6.550;2024-03-06T00:40:56;102064.94;;;3.86;100.00
77725;BME280;66892;53.236;6.550;2024-03-06T00:43:23;102068.25;;;3.82;100.00
77725;BME280;66892;53.236;6.550;2024-03-06T00:45:51;102072.66;;;3.83;100.00
77725;BME280;66892;53.236;6.550;2024-03-06T00:48:17;102079.59;;;3.83;100.00
77725;BME280;66892;53.236;6.550;2024-03-06T00:50:45;102081.31;;;3.82;100.00
77725;BME280;66892;53.236;6.550;2024-03-06T00:53:12;102083.94;;;3.82;100.00
77725;BME280;66892;53.236;6.550;2024-03-06T00:55:38;102083.13;;;3.83;100.00
77725;BME280;66892;53.236;6.550;2024-03-06T00:58:05;102084.84;;;3.83;100.00
77725;BME280;66892;53.236;6.550;2024-03-06T01:00:32;102089.25;;;3.84;100.00
77725;BME280;66892;53.236;6.550;2024-03-06T01:02:59;102085.69;;;3.82;100.00
77725;BME280;66892;53.236;6.550;2024-03-06T01:05:26;102084.78;;;3.81;100.00
77725;BME280;66892;53.236;6.550;2024-03-06T01:07:53;102084.78;;;3.81;100.00
77725;BME280;66892;53.236;6.550;2024-03-06T01:10:20;102080.31;;;3.79;100.00
77725;BME280;66892;53.236;6.550;2024-03-06T01:12:46;102084.66;;;3.78;100.00
77725;BME280;66892;53.236;6.550;2024-03-06T01:15:12;102086.41;;;3.79;100.00
77725;BME280;66892;53.236;6.550;2024-03-06T01:17:38;102084.69;;;3.80;100.00
77725;BME280;66892;53.236;6.550;2024-03-06T01:20:07;102089.75;;;3.75;100.00
77725;BME280;66892;53.236;6.550;2024-03-06T01:22:33;102086.09;;;3.71;100.00
77725;BME280;66892;53.236;6.550;2024-03-06T01:25:00;102082.63;;;3.72;100.00
77725;BME280;66892;53.236;6.550;2024-03-06T01:27:26;102083.63;;;3.75;100.00
77725;BME280;66892;53.236;6.550;2024-03-06T01:29:52;102093.28;;;3.76;100.00
77725;BME280;66892;53.236;6.550;2024-03-06T01:32:18;102093.44;;;3.80;100.00
77725;BME280;66892;53.236;6.550;2024-03-06T01:34:44;102092.28;;;3.73;100.00
77725;BME280;66892;53.236;6.550;2024-03-06T01:37:12;102096.63;;;3.73;100.00
77725;BME280;66892;53.236;6.550;2024-03-06T01:39:38;102093.81;;;3.68;100.00
77725;BME280;66892;53.236;6.550;2024-03-06T01:42:04;102101.59;;;3.67;100.00
77725;BME280;66892;53.236;6.550;2024-03-06T01:44:30;102104.41;;;3.71;100.00
77725;BME280;66892;53.236;6.550;2024-03-06T01:46:56;102098.97;;;3.67;100.00
77725;BME280;66892;53.236;6.550;2024-03-06T01:49:24;102096.31;;;3.65;100.00
77725;BME280;66892;53.236;6.550;2024-03-06T01:51:53;102106.75;;;3.65;100.00
77725;BME280;66892;53.236;6.550;2024-03-06T01:54:21;102096.34;;;3.67;100.00
77725;BME280;66892;53.236;6.550;2024-03-06T01:56:48;102099.50;;;3.60;100.00
77725;BME280;66892;53.236;6.550;2024-03-06T01:59:15;102096.84;;;3.58;100.00
77725;BME280;66892;53.236;6.550;2024-03-06T02:01:42;102107.34;;;3.60;100.00
77725;BME280;66892;53.236;6.550;2024-03-06T02:04:09;102112.59;;;3.60;100.00
77725;BME280;66892;53.236;6.550;2024-03-06T02:06:38;102107.34;;;3.60;100.00
77725;BME280;66892;53.236;6.550;2024-03-06T02:09:04;102117.78;;;3.58;100.00
77725;BME280;66892;53.236;6.550;2024-03-06T02:11:32;102122.19;;;3.59;100.00
77725;BME280;66892;53.236;6.550;2024-03-06T02:13:58;102122.19;;;3.59;100.00
77725;BME280;66892;53.236;6.550;2024-03-06T02:16:24;102123.00;;;3.58;100.00
77725;BME280;66892;53.236;6.550;2024-03-06T02:18:54;102126.44;;;3.57;100.00
77725;BME280;66892;53.236;6.550;2024-03-06T02:21:22;102124.44;;;3.52;100.00
77725;BME280;66892;53.236;6.550;2024-03-06T02:23:49;102120.78;;;3.48;100.00
77725;BME280;66892;53.236;6.550;2024-03-06T02:26:17;102119.88;;;3.48;100.00
77725;BME280;66892;53.236;6.550;2024-03-06T02:28:46;102120.50;;;3.42;100.00
77725;BME280;66892;53.236;6.550;2024-03-06T02:31:12;102130.75;;;3.38;100.00
77725;BME280;66892;53.236;6.550;2024-03-06T02:33:38;102127.19;;;3.36;100.00
77725;BME280;66892;53.236;6.550;2024-03-06T02:36:06;102130.56;;;3.33;100.00
77725;BME280;66892;53.236;6.550;2024-03-06T02:38:33;102126.41;;;3.38;100.00
77725;BME280;66892;53.236;6.550;2024-03-06T02:41:00;102125.38;;;3.35;100.00
77725;BME280;66892;53.236;6.550;2024-03-06T02:43:26;102126.00;;;3.29;100.00
77725;BME280;66892;53.236;6.550;2024-03-06T02:45:52;102123.16;;;3.25;100.00
77725;BME280;66892;53.236;6.550;2024-03-06T02:48:18;102124.91;;;3.24;100.00
77725;BME280;66892;53.236;6.550;2024-03-06T02:50:44;102125.84;;;3.26;100.00
77725;BME280;66892;53.236;6.550;2024-03-06T02:53:10;102134.38;;;3.22;100.00
77725;BME280;66892;53.236;6.550;2024-03-06T02:55:37;102130.81;;;3.20;100.00
77725;BME280;66892;53.236;6.550;2024-03-06T02:58:04;102122.28;;;3.24;100.00
77725;BME280;66892;53.236;6.550;2024-03-06T03:00:30;102123.72;;;3.17;100.00
77725;BME280;66892;53.236;6.550;2024-03-06T03:02:57;102120.88;;;3.13;100.00
77725;BME280;66892;53.236;6.550;2024-03-06T03:05:23;102129.47;;;3.10;100.00
77725;BME280;66892;53.236;6.550;2024-03-06T03:07:49;102120.75;;;3.10;100.00
77725;BME280;66892;53.236;6.550;2024-03-06T03:10:15;102123.41;;;3.11;100.00
77725;BME280;66892;53.236;6.550;2024-03-06T03:12:43;102132.00;;;3.09;100.00
77725;BME280;66892;53.236;6.550;2024-03-06T03:15:09;102131.09;;;3.08;100.00
77725;BME280;66892;53.236;6.550;2024-03-06T03:17:35;102136.47;;;3.11;100.00
77725;BME280;66892;53.236;6.550;2024-03-06T03:20:02;102135.66;;;3.12;100.00
77725;BME280;66892;53.236;6.550;2024-03-06T03:22:36;102139.03;;;3.10;100.00
77725;BME280;66892;53.236;6.550;2024-03-06T03:25:02;102141.78;;;3.13;100.00
77725;BME280;66892;53.236;6.550;2024-03-06T03:27:28;102150.44;;;3.12;100.00
77725;BME280;66892;53.236;6.550;2024-03-06T03:29:55;102144.41;;;3.13;100.00
77725;BME280;66892;53.236;6.550;2024-03-06T03:32:21;102154.47;;;3.05;100.00
77725;BME280;66892;53.236;6.550;2024-03-06T03:34:47;102153.63;;;3.05;100.00
77725;BME280;66892;53.236;6.550;2024-03-06T03:37:13;102156.28;;;3.06;100.00
77725;BME280;66892;53.236;6.550;2024-03-06T03:39:39;102151.34;;;3.12;100.00
77725;BME280;66892;53.236;6.550;2024-03-06T03:42:05;102160.00;;;3.11;100.00
77725;BME280;66892;53.236;6.550;2024-03-06T03:44:32;102154.03;;;3.14;100.00
77725;BME280;66892;53.236;6.550;2024-03-06T03:46:59;102162.59;;;3.11;100.00
77725;BME280;66892;53.236;6.550;2024-03-06T03:49:25;102159.19;;;3.12;100.00
77725;BME280;66892;53.236;6.550;2024-03-06T03:51:51;102167.16;;;3.15;100.00
77725;BME280;66892;53.236;6.550;2024-03-06T03:54:17;102167.03;;;3.12;100.00
77725;BME280;66892;53.236;6.550;2024-03-06T03:56:43;102167.16;;;3.15;100.00
77725;BME280;66892;53.236;6.550;2024-03-06T03:59:09;102167.16;;;3.15;100.00
77725;BME280;66892;53.236;6.550;2024-03-06T04:01:35;102168.88;;;3.15;100.00
77725;BME280;66892;53.236;6.550;2024-03-06T04:04:03;102168.88;;;3.15;100.00
77725;BME280;66892;53.236;6.550;2024-03-06T04:06:30;102161.94;;;3.15;100.00
77725;BME280;66892;53.236;6.550;2024-03-06T04:08:56;102166.88;;;3.09;100.00
77725;BME280;66892;53.236;6.550;2024-03-06T04:11:22;102167.16;;;3.15;100.00
77725;BME280;66892;53.236;6.550;2024-03-06T04:13:48;102173.91;;;3.10;100.00
77725;BME280;66892;53.236;6.550;2024-03-06T04:16:16;102169.59;;;3.11;100.00
77725;BME280;66892;53.236;6.550;2024-03-06T04:18:42;102173.25;;;3.14;100.00
77725;BME280;66892;53.236;6.550;2024-03-06T04:21:10;102172.53;;;3.18;100.00
77725;BME280;66892;53.236;6.550;2024-03-06T04:23:36;102176.06;;;3.19;100.00
77725;BME280;66892;53.236;6.550;2024-03-06T04:26:02;102176.94;;;3.19;100.00
77725;BME280;66892;53.236;6.550;2024-03-06T04:28:29;102171.63;;;3.18;100.00
77725;BME280;66892;53.236;6.550;2024-03-06T04:30:55;102174.34;;;3.19;100.00
77725;BME280;66892;53.236;6.550;2024-03-06T04:33:21;102184.88;;;3.21;100.00
77725;BME280;66892;53.236;6.550;2024-03-06T04:35:47;102177.91;;;3.22;100.00
77725;BME280;66892;53.236;6.550;2024-03-06T04:38:15;102188.44;;;3.23;100.00
77725;BME280;66892;53.236;6.550;2024-03-06T04:40:41;102181.38;;;3.21;100.00
77725;BME280;66892;53.236;6.550;2024-03-06T04:43:07;102184.94;;;3.23;100.00
77725;BME280;66892;53.236;6.550;2024-03-06T04:45:33;102182.31;;;3.23;100.00
77725;BME280;66892;53.236;6.550;2024-03-06T04:47:59;102182.28;;;3.21;100.00
77725;BME280;66892;53.236;6.550;2024-03-06T04:50:25;102190.09;;;3.21;100.00
77725;BME280;66892;53.236;6.550;2024-03-06T04:52:53;102188.91;;;3.14;100.00
77725;BME280;66892;53.236;6.550;2024-03-06T04:55:20;102182.69;;;3.12;100.00
77725;BME280;66892;53.236;6.550;2024-03-06T04:57:48;102194.97;;;3.13;100.00
77725;BME280;66892;53.236;6.550;2024-03-06T05:00:15;102196.59;;;3.11;100.00
77725;BME280;66892;53.236;6.550;2024-03-06T05:02:42;102194.72;;;3.09;100.00
77725;BME280;66892;53.236;6.550;2024-03-06T05:05:09;102204.41;;;3.11;100.00
77725;BME280;66892;53.236;6.550;2024-03-06T05:07:35;102197.44;;;3.10;100.00
77725;BME280;66892;53.236;6.550;2024-03-06T05:10:01;102210.50;;;3.10;100.00
77725;BME280;66892;53.236;6.550;2024-03-06T05:12:28;102206.16;;;3.11;100.00
77725;BME280;66892;53.236;6.550;2024-03-06T05:14:55;102205.31;;;3.12;100.00
77725;BME280;66892;53.236;6.550;2024-03-06T05:17:21;102211.44;;;3.12;100.00
77725;BME280;66892;53.236;6.550;2024-03-06T05:19:48;102221.00;;;3.12;100.00
77725;BME280;66892;53.236;6.550;2024-03-06T05:22:15;102218.47;;;3.13;100.00
77725;BME280;66892;53.236;6.550;2024-03-06T05:24:41;102216.78;;;3.14;100.00
77725;BME280;66892;53.236;6.550;2024-03-06T05:27:08;102224.81;;;3.18;100.00
77725;BME280;66892;53.236;6.550;2024-03-06T05:29:36;102230.03;;;3.18;100.00
77725;BME280;66892;53.236;6.550;2024-03-06T05:32:02;102232.88;;;3.23;100.00
77725;BME280;66892;53.236;6.550;2024-03-06T05:34:29;102234.00;;;3.28;100.00
77725;BME280;66892;53.236;6.550;2024-03-06T05:36:55;102240.34;;;3.33;100.00
77725;BME280;66892;53.236;6.550;2024-03-06T05:39:21;102248.34;;;3.36;100.00
77725;BME280;66892;53.236;6.550;2024-03-06T05:41:47;102251.91;;;3.38;100.00
77725;BME280;66892;53.236;6.550;2024-03-06T05:44:13;102247.88;;;3.45;100.00
77725;BME280;66892;53.236;6.550;2024-03-06T05:46:41;102258.34;;;3.45;100.00
77725;BME280;66892;53.236;6.550;2024-03-06T05:49:07;102254.06;;;3.47;100.00
77725;BME280;66892;53.236;6.550;2024-03-06T05:51:33;102261.09;;;3.48;100.00
77725;BME280;66892;53.236;6.550;2024-03-06T05:53:59;102267.31;;;3.50;100.00
77725;BME280;66892;53.236;6.550;2024-03-06T05:56:25;102265.44;;;3.47;100.00
77725;BME280;66892;53.236;6.550;2024-03-06T05:58:51;102267.31;;;3.50;100.00
77725;BME280;66892;53.236;6.550;2024-03-06T06:01:17;102268.41;;;3.55;100.00
77725;BME280;66892;53.236;6.550;2024-03-06T06:03:48;102266.69;;;3.55;100.00
77725;BME280;66892;53.236;6.550;2024-03-06T06:06:15;102278.94;;;3.56;100.00
77725;BME280;66892;53.236;6.550;2024-03-06T06:08:41;102278.06;;;3.56;100.00
77725;BME280;66892;53.236;6.550;2024-03-06T06:11:06;102283.44;;;3.59;100.00
77725;BME280;66892;53.236;6.550;2024-03-06T06:13:33;102279.03;;;3.58;100.00
77725;BME280;66892;53.236;6.550;2024-03-06T06:15:59;102285.16;;;3.58;100.00
77725;BME280;66892;53.236;6.550;2024-03-06T06:18:28;102290.44;;;3.60;100.00
77725;BME280;66892;53.236;6.550;2024-03-06T06:20:55;102293.19;;;3.63;100.00
77725;BME280;66892;53.236;6.550;2024-03-06T06:23:21;102294.84;;;3.61;100.00
77725;BME280;66892;53.236;6.550;2024-03-06T06:25:47;102299.34;;;3.63;100.00
77725;BME280;66892;53.236;6.550;2024-03-06T06:28:13;102304.66;;;3.65;100.00
77725;BME280;66892;53.236;6.550;2024-03-06T06:30:39;102302.09;;;3.66;100.00
77725;BME280;66892;53.236;6.550;2024-03-06T06:33:05;102301.38;;;3.69;100.00
77725;BME280;66892;53.236;6.550;2024-03-06T06:35:32;102300.66;;;3.73;100.00
77725;BME280;66892;53.236;6.550;2024-03-06T06:38:01;102307.41;;;3.68;100.00
77725;BME280;66892;53.236;6.550;2024-03-06T06:40:27;102316.31;;;3.71;100.00
77725;BME280;66892;53.236;6.550;2024-03-06T06:42:54;102319.88;;;3.73;100.00
77725;BME280;66892;53.236;6.550;2024-03-06T06:45:20;102312.78;;;3.71;100.00
77725;BME280;66892;53.236;6.550;2024-03-06T06:47:48;102317.25;;;3.73;100.00
77725;BME280;66892;53.236;6.550;2024-03-06T06:50:15;102329.28;;;3.70;100.00
77725;BME280;66892;53.236;6.550;2024-03-06T06:52:41;102334.81;;;3.76;100.00
77725;BME280;66892;53.236;6.550;2024-03-06T06:55:09;102335.66;;;3.75;100.00
77725;BME280;66892;53.236;6.550;2024-03-06T06:57:37;102327.88;;;3.77;100.00
77725;BME280;66892;53.236;6.550;2024-03-06T07:00:04;102338.34;;;3.77;100.00
77725;BME280;66892;53.236;6.550;2024-03-06T07:02:36;102335.81;;;3.78;100.00
77725;BME280;66892;53.236;6.550;2024-03-06T07:05:03;102340.13;;;3.78;100.00
77725;BME280;66892;53.236;6.550;2024-03-06T07:07:30;102341.94;;;3.79;100.00
77725;BME280;66892;53.236;6.550;2024-03-06T07:09:56;102344.75;;;3.83;100.00
77725;BME280;66892;53.236;6.550;2024-03-06T07:12:24;102342.28;;;3.86;100.00
77725;BME280;66892;53.236;6.550;2024-03-06T07:14:50;102347.66;;;3.89;100.00
77725;BME280;66892;53.236;6.550;2024-03-06T07:17:16;102351.94;;;3.87;100.00
77725;BME280;66892;53.236;6.550;2024-03-06T07:19:42;102357.94;;;3.85;100.00
77725;BME280;66892;53.236;6.550;2024-03-06T07:22:08;102369.44;;;3.88;100.00
77725;BME280;66892;53.236;6.550;2024-03-06T07:24:34;102359.13;;;3.91;100.00
77725;BME280;66892;53.236;6.550;2024-03-06T07:27:00;102371.44;;;3.94;100.00
77725;BME280;66892;53.236;6.550;2024-03-06T07:29:30;102371.44;;;3.94;100.00
77725;BME280;66892;53.236;6.550;2024-03-06T07:31:56;102376.06;;;3.99;100.00
77725;BME280;66892;53.236;6.550;2024-03-06T07:34:22;102379.81;;;4.04;100.00
77725;BME280;66892;53.236;6.550;2024-03-06T07:36:48;102378.00;;;4.03;100.00
77725;BME280;66892;53.236;6.550;2024-03-06T07:39:15;102370.16;;;4.03;100.00
77725;BME280;66892;53.236;6.550;2024-03-06T07:41:41;102374.72;;;4.07;100.00
77725;BME280;66892;53.236;6.550;2024-03-06T07:44:07;102378.38;;;4.11;100.00
77725;BME280;66892;53.236;6.550;2024-03-06T07:46:36;102376.88;;;4.16;100.00
77725;BME280;66892;53.236;6.550;2024-03-06T07:49:02;102381.06;;;4.12;100.00
77725;BME280;66892;53.236;6.550;2024-03-06T07:51:28;102374.94;;;4.12;100.00
77725;BME280;66892;53.236;6.550;2024-03-06T07:53:55;102379.50;;;4.16;100.00
77725;BME280;66892;53.236;6.550;2024-03-06T07:56:22;102381.28;;;4.17;100.00
77725;BME280;66892;53.236;6.550;2024-03-06T07:58:49;102388.53;;;4.22;100.00
77725;BME280;66892;53.236;6.550;2024-03-06T08:01:15;102382.47;;;4.23;100.00
77725;BME280;66892;53.236;6.550;2024-03-06T08:03:43;102381.44;;;4.20;100.00
77725;BME280;66892;53.236;6.550;2024-03-06T08:06:10;102401.66;;;4.24;100.00
77725;BME280;66892;53.236;6.550;2024-03-06T08:08:36;102400.81;;;4.23;100.00
77725;BME280;66892;53.236;6.550;2024-03-06T08:11:02;102397.44;;;4.26;100.00
77725;BME280;66892;53.236;6.550;2024-03-06T08:13:28;102402.84;;;4.31;100.00
77725;BME280;66892;53.236;6.550;2024-03-06T08:15:55;102410.66;;;4.29;100.00
77725;BME280;66892;53.236;6.550;2024-03-06T08:18:21;102415.09;;;4.30;100.00
77725;BME280;66892;53.236;6.550;2024-03-06T08:20:48;102407.38;;;4.33;100.00
77725;BME280;66892;53.236;6.550;2024-03-06T08:23:14;102412.94;;;4.41;100.00
77725;BME280;66892;53.236;6.550;2024-03-06T08:25:40;102427.91;;;4.43;100.00
77725;BME280;66892;53.236;6.550;2024-03-06T08:28:06;102429.94;;;4.49;100.00
77725;BME280;66892;53.236;6.550;2024-03-06T08:30:32;102423.78;;;4.48;100.00
77725;BME280;66892;53.236;6.550;2024-03-06T08:32:58;102427.50;;;4.53;100.00
77725;BME280;66892;53.236;6.550;2024-03-06T08:35:25;102443.59;;;4.61;100.00
77725;BME280;66892;53.236;6.550;2024-03-06T08:37:52;102430.13;;;4.72;100.00
77725;BME280;66892;53.236;6.550;2024-03-06T08:40:19;102443.97;;;4.88;100.00
77725;BME280;66892;53.236;6.550;2024-03-06T08:42:45;102441.75;;;4.97;100.00
77725;BME280;66892;53.236;6.550;2024-03-06T08:45:13;102451.19;;;5.12;100.00
77725;BME280;66892;53.236;6.550;2024-03-06T08:47:40;102451.44;;;5.18;100.00
77725;BME280;66892;53.236;6.550;2024-03-06T08:50:07;102450.91;;;5.25;100.00
77725;BME280;66892;53.236;6.550;2024-03-06T08:52:36;102453.84;;;5.33;100.00
77725;BME280;66892;53.236;6.550;2024-03-06T08:55:05;102452.31;;;5.38;100.00
77725;BME280;66892;53.236;6.550;2024-03-06T08:57:31;102454.31;;;5.44;100.00
77725;BME280;66892;53.236;6.550;2024-03-06T08:59:57;102452.66;;;5.46;100.00
77725;BME280;66892;53.236;6.550;2024-03-06T09:02:24;102457.28;;;5.51;100.00
77725;BME280;66892;53.236;6.550;2024-03-06T09:04:51;102457.31;;;5.53;100.00
77725;BME280;66892;53.236;6.550;2024-03-06T09:07:18;102459.69;;;5.47;100.00
77725;BME280;66892;53.236;6.550;2024-03-06T09:09:45;102460.66;;;5.49;100.00
77725;BME280;66892;53.236;6.550;2024-03-06T09:12:13;102463.34;;;5.50;100.00
77725;BME280;66892;53.236;6.550;2024-03-06T09:14:40;102466.59;;;5.65;100.00
77725;BME280;66892;53.236;6.550;2024-03-06T09:17:07;102464.16;;;5.89;100.00
77725;BME280;66892;53.236;6.550;2024-03-06T09:19:36;102471.06;;;6.08;100.00
77725;BME280;66892;53.236;6.550;2024-03-06T09:22:02;102479.41;;;6.20;100.00
77725;BME280;66892;53.236;6.550;2024-03-06T09:24:28;102479.75;;;6.27;100.00
77725;BME280;66892;53.236;6.550;2024-03-06T09:26:54;102492.41;;;6.38;100.00
77725;BME280;66892;53.236;6.550;2024-03-06T09:29:22;102487.28;;;6.41;100.00
77725;BME280;66892;53.236;6.550;2024-03-06T09:31:48;102490.22;;;6.48;100.00
77725;BME280;66892;53.236;6.550;2024-03-06T09:34:14;102486.25;;;6.59;100.00
77725;BME280;66892;53.236;6.550;2024-03-06T09:36:41;102499.94;;;6.73;100.00
77725;BME280;66892;53.236;6.550;2024-03-06T09:39:10;102494.56;;;6.70;100.00
77725;BME280;66892;53.236;6.550;2024-03-06T09:41:37;102500.63;;;6.67;100.00
77725;BME280;66892;53.236;6.550;2024-03-06T09:44:05;102501.25;;;6.62;100.00
77725;BME280;66892;53.236;6.550;2024-03-06T09:46:32;102505.75;;;6.64;100.00
77725;BME280;66892;53.236;6.550;2024-03-06T09:49:00;102516.78;;;6.78;100.00
77725;BME280;66892;53.236;6.550;2024-03-06T09:51:27;102510.94;;;6.85;100.00
77725;BME280;66892;53.236;6.550;2024-03-06T09:53:53;102516.59;;;6.96;100.00
77725;BME280;66892;53.236;6.550;2024-03-06T09:56:19;102510.78;;;7.04;100.00
77725;BME280;66892;53.236;6.550;2024-03-06T09:58:46;102529.03;;;7.00;100.00
77725;BME280;66892;53.236;6.550;2024-03-06T10:01:13;102523.53;;;7.16;100.00
77725;BME280;66892;53.236;6.550;2024-03-06T10:03:41;102527.03;;;7.40;100.00
77725;BME280;66892;53.236;6.550;2024-03-06T10:06:07;102541.50;;;7.51;100.00
77725;BME280;66892;53.236;6.550;2024-03-06T10:08:33;102541.09;;;7.40;100.00
77725;BME280;66892;53.236;6.550;2024-03-06T10:10:59;102539.06;;;7.33;100.00
77725;BME280;66892;53.236;6.550;2024-03-06T10:13:26;102539.59;;;7.47;100.00
77725;BME280;66892;53.236;6.550;2024-03-06T10:15:56;102543.34;;;7.54;100.00
77725;BME280;66892;53.236;6.550;2024-03-06T10:18:26;102548.59;;;7.54;100.00
77725;BME280;66892;53.236;6.550;2024-03-06T10:20:54;102546.75;;;7.51;100.00
77725;BME280;66892;53.236;6.550;2024-03-06T10:23:20;102550.41;;;7.31;100.00
77725;BME280;66892;53.236;6.550;2024-03-06T10:25:47;102552.13;;;7.30;100.00
77725;BME280;66892;53.236;6.550;2024-03-06T10:28:17;102549.28;;;7.24;100.00
77725;BME280;66892;53.236;6.550;2024-03-06T10:30:44;102549.97;;;7.20;100.00
77725;BME280;66892;53.236;6.550;2024-03-06T10:33:11;102554.22;;;7.17;100.00
77725;BME280;66892;53.236;6.550;2024-03-06T10:35:40;102556.06;;;7.19;100.00
77725;BME280;66892;53.236;6.550;2024-03-06T10:38:08;102551.06;;;7.25;100.00
77725;BME280;66892;53.236;6.550;2024-03-06T10:40:36;102552.94;;;7.29;100.00
77725;BME280;66892;53.236;6.550;2024-03-06T10:43:04;102553.13;;;7.34;100.00
77725;BME280;66892;53.236;6.550;2024-03-06T10:45:40;102563.16;;;7.44;100.00
77725;BME280;66892;53.236;6.550;2024-03-06T10:48:08;102559.75;;;7.47;100.00
77725;BME280;66892;53.236;6.550;2024-03-06T10:50:38;102558.06;;;7.49;100.00
77725;BME280;66892;53.236;6.550;2024-03-06T10:53:10;102562.72;;;7.56;100.00
77725;BME280;66892;53.236;6.550;2024-03-06T10:55:36;102557.16;;;7.72;100.00
77725;BME280;66892;53.236;6.550;2024-03-06T10:58:05;102564.16;;;7.71;100.00
77725;BME280;66892;53.236;6.550;2024-03-06T11:00:34;102568.47;;;7.69;100.00
77725;BME280;66892;53.236;6.550;2024-03-06T11:03:01;102570.88;;;7.63;100.00
77725;BME280;66892;53.236;6.550;2024-03-06T11:05:29;102564.41;;;7.54;100.00
77725;BME280;66892;53.236;6.550;2024-03-06T11:07:55;102570.72;;;7.59;100.00
77725;BME280;66892;53.236;6.550;2024-03-06T11:10:33;102574.94;;;7.54;100.00
77725;BME280;66892;53.236;6.550;2024-03-06T11:13:00;102576.59;;;7.52;100.00
77725;BME280;66892;53.236;6.550;2024-03-06T11:15:27;102580.00;;;7.49;100.00
77725;BME280;66892;53.236;6.550;2024-03-06T11:17:53;102585.34;;;7.51;100.00
77725;BME280;66892;53.236;6.550;2024-03-06T11:20:22;102587.22;;;7.55;100.00
77725;BME280;66892;53.236;6.550;2024-03-06T11:23:04;102584.75;;;7.58;100.00
77725;BME280;66892;53.236;6.550;2024-03-06T11:26:03;102582.31;;;7.64;100.00
77725;BME280;66892;53.236;6.550;2024-03-06T11:28:30;102584.31;;;7.71;100.00
77725;BME280;66892;53.236;6.550;2024-03-06T11:30:57;102581.94;;;7.77;100.00
77725;BME280;66892;53.236;6.550;2024-03-06T11:33:38;102584.81;;;7.84;100.00
77725;BME280;66892;53.236;6.550;2024-03-06T11:36:18;102589.84;;;8.02;100.00
77725;BME280;66892;53.236;6.550;2024-03-06T11:38:51;102582.47;;;8.17;100.00
77725;BME280;66892;53.236;6.550;2024-03-06T11:41:21;102596.06;;;8.29;100.00
77725;BME280;66892;53.236;6.550;2024-03-06T11:43:48;102584.81;;;8.33;100.00
77725;BME280;66892;53.236;6.550;2024-03-06T11:46:17;102583.38;;;8.43;100.00
77725;BME280;66892;53.236;6.550;2024-03-06T11:48:43;102586.97;;;8.73;97.85
77725;BME280;66892;53.236;6.550;2024-03-06T11:51:09;102586.13;;;8.73;98.03
77725;BME280;66892;53.236;6.550;2024-03-06T11:53:35;102592.66;;;8.59;98.53
77725;BME280;66892;53.236;6.550;2024-03-06T11:56:05;102597.75;;;8.53;98.05
77725;BME280;66892;53.236;6.550;2024-03-06T11:58:34;102590.38;;;8.42;98.89
77725;BME280;66892;53.236;6.550;2024-03-06T12:01:00;102595.34;;;8.33;98.51
77725;BME280;66892;53.236;6.550;2024-03-06T12:03:27;102596.75;;;8.24;99.44
77725;BME280;66892;53.236;6.550;2024-03-06T12:05:53;102594.28;;;8.28;100.00
77725;BME280;66892;53.236;6.550;2024-03-06T12:08:20;102593.06;;;8.44;100.00
77725;BME280;66892;53.236;6.550;2024-03-06T12:10:46;102590.88;;;8.58;100.00
77725;BME280;66892;53.236;6.550;2024-03-06T12:13:15;102602.31;;;8.58;99.25
77725;BME280;66892;53.236;6.550;2024-03-06T12:15:44;102604.47;;;8.70;100.00
77725;BME280;66892;53.236;6.550;2024-03-06T12:18:10;102604.72;;;8.77;98.65
77725;BME280;66892;53.236;6.550;2024-03-06T12:20:41;102597.41;;;8.95;98.27
77725;BME280;66892;53.236;6.550;2024-03-06T12:23:07;102605.25;;;8.94;98.15
77725;BME280;66892;53.236;6.550;2024-03-06T12:25:33;102608.34;;;8.81;99.01
77725;BME280;66892;53.236;6.550;2024-03-06T12:28:07;102603.06;;;8.81;100.00
77725;BME280;66892;53.236;6.550;2024-03-06T12:30:40;102605.88;;;8.87;98.83
77725;BME280;66892;53.236;6.550;2024-03-06T12:33:09;102599.78;;;8.88;99.10
77725;BME280;66892;53.236;6.550;2024-03-06T12:35:37;102595.66;;;8.69;98.55
77725;BME280;66892;53.236;6.550;2024-03-06T12:38:11;102598.34;;;8.71;99.85
77725;BME280;66892;53.236;6.550;2024-03-06T12:40:37;102594.75;;;8.95;100.00
77725;BME280;66892;53.236;6.550;2024-03-06T12:43:03;102596.50;;;8.95;99.65
77725;BME280;66892;53.236;6.550;2024-03-06T12:45:30;102598.25;;;8.96;98.70
77725;BME280;66892;53.236;6.550;2024-03-06T12:47:56;102613.31;;;8.98;99.49
77725;BME280;66892;53.236;6.550;2024-03-06T12:50:24;102601.59;;;9.17;99.69